createdAt,value
2023-12-07T00:00:39.753Z,22.09
2023-12-07T00:02:41.197Z,22.12
2023-12-07T00:04:42.689Z,22.11
2023-12-07T00:06:44.263Z,22.13
2023-12-07T00:08:45.674Z,22.13
2023-12-07T00:10:47.184Z,22.13
2023-12-07T00:12:48.781Z,22.12
2023-12-07T00:14:50.935Z,22.11
2023-12-07T00:16:52.458Z,22.10
2023-12-07T00:18:54.388Z,22.09
2023-12-07T00:20:55.979Z,22.07
2023-12-07T00:22:57.635Z,22.08
2023-12-07T00:24:59.516Z,22.09
2023-12-07T00:27:01.023Z,22.10
2023-12-07T00:29:02.514Z,22.09
2023-12-07T00:31:04.303Z,22.10
2023-12-07T00:33:05.773Z,22.09
2023-12-07T00:35:09.034Z,22.09
2023-12-07T00:37:10.900Z,22.09
2023-12-07T00:39:13.320Z,22.08
2023-12-07T00:41:15.138Z,22.05
2023-12-07T00:43:17.510Z,22.05
2023-12-07T00:45:19.028Z,22.06
2023-12-07T00:47:20.629Z,22.07
2023-12-07T00:49:22.173Z,22.10
2023-12-07T00:51:23.669Z,22.09
2023-12-07T00:53:25.141Z,22.09
2023-12-07T00:55:26.624Z,22.09
2023-12-07T00:57:28.109Z,22.08
2023-12-07T00:59:34.840Z,22.08
2023-12-07T01:01:39.839Z,22.04
2023-12-07T01:03:41.939Z,22.04
2023-12-07T01:05:43.664Z,22.05
2023-12-07T01:07:45.240Z,22.06
2023-12-07T01:09:47.386Z,22.07
2023-12-07T01:11:49.202Z,22.08
2023-12-07T01:13:50.691Z,22.10
2023-12-07T01:15:52.283Z,22.10
2023-12-07T01:17:55.127Z,22.09
2023-12-07T01:19:56.717Z,22.09
2023-12-07T01:21:58.320Z,22.07
2023-12-07T01:24:10.569Z,22.06
2023-12-07T01:26:17.074Z,22.06
2023-12-07T01:28:18.563Z,22.06
2023-12-07T01:30:20.199Z,22.08
2023-12-07T01:32:21.994Z,22.10
2023-12-07T01:34:23.910Z,22.11
2023-12-07T01:36:25.802Z,22.09
2023-12-07T01:38:27.363Z,22.10
2023-12-07T01:40:28.924Z,22.10
2023-12-07T01:42:30.417Z,22.10
2023-12-07T01:44:32.162Z,22.09
2023-12-07T01:46:34.618Z,22.06
2023-12-07T01:48:36.410Z,22.07
2023-12-07T01:50:38.297Z,22.06
2023-12-07T01:52:43.495Z,22.08
2023-12-07T01:54:45.025Z,22.08
2023-12-07T01:56:46.860Z,22.09
2023-12-07T01:58:48.462Z,22.09
2023-12-07T02:00:50.242Z,22.09
2023-12-07T02:02:52.533Z,22.09
2023-12-07T02:04:54.192Z,22.08
2023-12-07T02:06:57.962Z,22.08
2023-12-07T02:08:59.667Z,22.06
2023-12-07T02:11:01.454Z,22.06
2023-12-07T02:13:04.454Z,22.07
2023-12-07T02:15:07.667Z,22.08
2023-12-07T02:17:25.386Z,22.08
2023-12-07T02:19:47.401Z,22.09
2023-12-07T02:21:51.094Z,22.11
2023-12-07T02:23:54.458Z,22.10
2023-12-07T02:26:00.413Z,22.09
2023-12-07T02:28:01.958Z,22.07
2023-12-07T02:30:03.747Z,22.07
2023-12-07T02:32:05.378Z,22.05
2023-12-07T02:34:07.214Z,22.05
2023-12-07T02:36:09.032Z,22.07
2023-12-07T02:38:10.939Z,22.07
2023-12-07T02:40:15.956Z,22.08
2023-12-07T02:42:17.788Z,22.08
2023-12-07T02:44:19.311Z,22.09
2023-12-07T02:46:20.810Z,22.09
2023-12-07T02:48:22.446Z,22.10
2023-12-07T02:50:23.984Z,22.09
2023-12-07T02:52:25.989Z,22.07
2023-12-07T02:54:27.904Z,22.07
2023-12-07T02:56:29.404Z,22.06
2023-12-07T02:58:31.056Z,22.08
2023-12-07T03:00:32.585Z,22.08
2023-12-07T03:02:37.627Z,22.09
2023-12-07T03:04:39.199Z,22.09
2023-12-07T03:06:40.711Z,22.09
2023-12-07T03:08:42.180Z,22.10
2023-12-07T03:10:43.691Z,22.08
2023-12-07T03:12:45.248Z,22.07
2023-12-07T03:14:47.047Z,22.07
2023-12-07T03:16:48.725Z,22.03
2023-12-07T03:18:50.281Z,22.04
2023-12-07T03:20:51.889Z,22.03
2023-12-07T03:22:53.490Z,22.04
2023-12-07T03:24:55.030Z,22.04
2023-12-07T03:26:56.474Z,22.04
2023-12-07T03:28:57.897Z,22.05
2023-12-07T03:30:59.455Z,22.04
2023-12-07T03:33:01.016Z,22.04
2023-12-07T03:35:02.624Z,22.03
2023-12-07T03:37:04.497Z,22.02
2023-12-07T03:39:06.251Z,22.02
2023-12-07T03:41:07.710Z,22.04
2023-12-07T03:43:09.218Z,22.03
2023-12-07T03:45:11.018Z,22.03
2023-12-07T03:47:12.481Z,22.04
2023-12-07T03:49:14.010Z,22.04
2023-12-07T03:51:17.478Z,22.06
2023-12-07T03:53:19.019Z,22.00
2023-12-07T03:55:20.546Z,22.04
2023-12-07T03:57:22.801Z,22.03
2023-12-07T03:59:24.338Z,22.03
2023-12-07T04:01:26.433Z,22.02
2023-12-07T04:03:27.878Z,22.04
2023-12-07T04:05:29.518Z,22.03
2023-12-07T04:07:31.311Z,22.05
2023-12-07T04:09:32.825Z,22.05
2023-12-07T04:11:34.374Z,22.05
2023-12-07T04:13:35.848Z,22.06
2023-12-07T04:15:37.309Z,22.05
2023-12-07T04:17:38.789Z,22.05
2023-12-07T04:19:40.298Z,22.02
2023-12-07T04:21:41.931Z,22.02
2023-12-07T04:23:43.571Z,22.01
2023-12-07T04:25:45.171Z,22.02
2023-12-07T04:27:46.720Z,22.02
2023-12-07T04:29:48.612Z,22.03
2023-12-07T04:31:51.120Z,22.04
2023-12-07T04:33:52.683Z,22.05
2023-12-07T04:35:54.159Z,22.04
2023-12-07T04:37:55.781Z,22.06
2023-12-07T04:39:57.239Z,22.04
2023-12-07T04:41:58.771Z,22.02
2023-12-07T04:44:00.345Z,22.00
2023-12-07T04:46:01.792Z,22.00
2023-12-07T04:48:05.041Z,21.99
2023-12-07T04:50:06.921Z,22.00
2023-12-07T04:52:08.494Z,22.02
2023-12-07T04:54:16.613Z,22.04
2023-12-07T04:56:21.439Z,22.04
2023-12-07T04:58:22.964Z,22.02
2023-12-07T05:00:24.408Z,22.01
2023-12-07T05:02:26.230Z,22.01
2023-12-07T05:04:28.019Z,22.00
2023-12-07T05:06:29.653Z,21.98
2023-12-07T05:08:31.055Z,21.98
2023-12-07T05:10:32.515Z,21.99
2023-12-07T05:12:34.062Z,22.00
2023-12-07T05:14:36.245Z,22.01
2023-12-07T05:16:37.938Z,22.00
2023-12-07T05:18:39.491Z,22.00
2023-12-07T05:20:41.277Z,22.01
2023-12-07T05:22:42.840Z,22.02
2023-12-07T05:24:44.485Z,22.01
2023-12-07T05:26:52.980Z,22.01
2023-12-07T05:28:54.469Z,21.98
2023-12-07T05:30:58.253Z,21.98
2023-12-07T05:33:00.033Z,21.98
2023-12-07T05:35:01.713Z,22.00
2023-12-07T05:37:03.276Z,22.02
2023-12-07T05:39:08.218Z,22.03
2023-12-07T05:41:10.564Z,22.02
2023-12-07T05:43:12.015Z,22.02
2023-12-07T05:45:13.549Z,22.02
2023-12-07T05:47:15.179Z,22.02
2023-12-07T05:49:16.769Z,22.01
2023-12-07T05:51:21.769Z,22.00
2023-12-07T05:53:23.313Z,22.00
2023-12-07T05:55:25.162Z,22.01
2023-12-07T05:57:26.767Z,22.01
2023-12-07T05:59:28.283Z,22.00
2023-12-07T06:01:29.912Z,21.99
2023-12-07T06:03:31.574Z,22.01
2023-12-07T06:05:33.180Z,22.01
2023-12-07T06:07:35.233Z,22.00
2023-12-07T06:09:36.729Z,21.99
2023-12-07T06:11:38.336Z,21.99
2023-12-07T06:13:39.896Z,21.99
2023-12-07T06:15:41.645Z,21.99
2023-12-07T06:17:43.432Z,22.01
2023-12-07T06:19:45.372Z,22.00
2023-12-07T06:21:47.157Z,22.01
2023-12-07T06:23:48.836Z,22.02
2023-12-07T06:25:50.530Z,22.02
2023-12-07T06:27:52.049Z,22.02
2023-12-07T06:29:53.626Z,22.02
2023-12-07T06:31:55.046Z,22.00
2023-12-07T06:33:56.667Z,21.99
2023-12-07T06:35:58.258Z,21.99
2023-12-07T06:37:59.845Z,21.90
2023-12-07T06:40:01.440Z,21.98
2023-12-07T06:42:03.062Z,21.99
2023-12-07T06:44:04.520Z,22.00
2023-12-07T06:46:06.430Z,22.00
2023-12-07T06:48:08.035Z,22.00
2023-12-07T06:50:11.305Z,22.00
2023-12-07T06:52:13.142Z,22.00
2023-12-07T06:54:14.974Z,21.99
2023-12-07T06:56:16.766Z,21.97
2023-12-07T06:58:18.747Z,21.98
2023-12-07T07:00:21.209Z,21.97
2023-12-07T07:02:24.233Z,21.98
2023-12-07T07:04:26.046Z,21.99
2023-12-07T07:06:27.574Z,22.01
2023-12-07T07:08:29.846Z,22.01
2023-12-07T07:10:31.423Z,22.01
2023-12-07T07:12:32.997Z,22.02
2023-12-07T07:14:35.327Z,22.00
2023-12-07T07:16:36.806Z,21.99
2023-12-07T07:18:39.118Z,21.97
2023-12-07T07:20:40.767Z,21.96
2023-12-07T07:22:42.397Z,21.97
2023-12-07T07:24:44.278Z,21.98
2023-12-07T07:26:45.732Z,21.99
2023-12-07T07:28:47.280Z,22.02
2023-12-07T07:30:49.131Z,22.02
2023-12-07T07:32:51.039Z,22.02
2023-12-07T07:34:53.252Z,22.02
2023-12-07T07:36:54.801Z,22.02
2023-12-07T07:38:56.345Z,22.01
2023-12-07T07:40:57.953Z,21.99
2023-12-07T07:42:59.668Z,21.99
2023-12-07T07:45:01.170Z,21.97
2023-12-07T07:47:02.699Z,21.99
2023-12-07T07:49:07.562Z,22.00
2023-12-07T07:51:09.316Z,22.00
2023-12-07T07:53:10.817Z,22.01
2023-12-07T07:55:13.047Z,22.02
2023-12-07T07:57:14.536Z,22.01
2023-12-07T07:59:16.392Z,21.99
2023-12-07T08:01:18.001Z,21.98
2023-12-07T08:03:19.566Z,21.96
2023-12-07T08:05:21.082Z,21.96
2023-12-07T08:07:22.902Z,21.96
2023-12-07T08:09:24.572Z,21.97
2023-12-07T08:11:26.314Z,21.99
2023-12-07T08:13:28.676Z,22.00
2023-12-07T08:15:30.390Z,22.00
2023-12-07T08:17:31.987Z,22.00
2023-12-07T08:19:33.796Z,22.00
2023-12-07T08:21:35.421Z,21.99
2023-12-07T08:23:36.983Z,21.98
2023-12-07T08:25:41.436Z,21.98
2023-12-07T08:27:45.234Z,21.97
2023-12-07T08:29:47.520Z,21.97
2023-12-07T08:31:49.216Z,21.97
2023-12-07T08:33:54.208Z,21.98
2023-12-07T08:35:56.550Z,21.98
2023-12-07T08:37:58.161Z,21.98
2023-12-07T08:39:59.813Z,21.99
2023-12-07T08:42:02.091Z,22.00
2023-12-07T08:44:03.831Z,22.00
2023-12-07T08:46:08.504Z,21.97
2023-12-07T08:48:10.222Z,21.98
2023-12-07T08:50:11.807Z,21.97
2023-12-07T08:52:22.826Z,21.98
2023-12-07T08:54:33.550Z,21.99
2023-12-07T08:56:35.119Z,22.00
2023-12-07T08:58:36.678Z,22.00
2023-12-07T09:00:39.506Z,22.00
2023-12-07T09:02:46.672Z,22.01
2023-12-07T09:04:51.752Z,22.02
2023-12-07T09:06:53.439Z,22.00
2023-12-07T09:08:56.207Z,21.98
2023-12-07T09:10:57.983Z,21.96
2023-12-07T09:12:59.490Z,21.98
2023-12-07T09:15:01.001Z,22.00
2023-12-07T09:17:02.491Z,22.01
2023-12-07T09:19:04.126Z,22.00
2023-12-07T09:21:05.741Z,21.99
2023-12-07T09:23:07.288Z,21.99
2023-12-07T09:25:09.393Z,21.98
2023-12-07T09:27:12.817Z,21.97
2023-12-07T09:29:14.449Z,21.95
2023-12-07T09:31:17.849Z,21.94
2023-12-07T09:33:20.649Z,21.94
2023-12-07T09:35:23.296Z,21.96
2023-12-07T09:37:25.199Z,21.98
2023-12-07T09:39:28.775Z,21.99
2023-12-07T09:41:31.495Z,22.01
2023-12-07T09:43:33.394Z,22.01
2023-12-07T09:45:35.379Z,22.01
2023-12-07T09:47:38.575Z,22.00
2023-12-07T09:49:41.233Z,21.99
2023-12-07T09:51:43.594Z,21.97
2023-12-07T09:53:46.155Z,21.97
2023-12-07T09:55:47.918Z,21.96
2023-12-07T09:57:50.328Z,21.98
2023-12-07T09:59:51.948Z,21.99
2023-12-07T10:01:53.556Z,22.02
2023-12-07T10:04:13.948Z,22.03
2023-12-07T10:06:16.047Z,22.01
2023-12-07T10:08:26.343Z,22.01
2023-12-07T10:10:28.034Z,22.00
2023-12-07T10:12:29.673Z,21.99
2023-12-07T10:14:31.392Z,21.98
2023-12-07T10:16:36.303Z,21.95
2023-12-07T10:18:40.005Z,21.93
2023-12-07T10:20:46.488Z,21.95
2023-12-07T10:22:48.338Z,21.95
2023-12-07T10:24:50.079Z,21.93
2023-12-07T10:26:59.993Z,21.94
2023-12-07T10:29:09.070Z,21.92
2023-12-07T10:31:12.190Z,21.91
2023-12-07T10:33:14.681Z,21.89
2023-12-07T10:35:17.677Z,21.89
2023-12-07T10:37:19.170Z,21.86
2023-12-07T10:39:25.115Z,21.79
2023-12-07T10:41:30.493Z,21.82
2023-12-07T10:43:34.072Z,21.85
2023-12-07T10:45:36.130Z,21.86
2023-12-07T10:47:40.530Z,21.89
2023-12-07T10:49:47.775Z,21.88
2023-12-07T10:52:01.043Z,21.85
2023-12-07T10:54:05.715Z,21.76
2023-12-07T10:56:11.239Z,21.79
2023-12-07T10:58:14.045Z,21.83
2023-12-07T11:00:15.760Z,21.84
2023-12-07T11:02:19.942Z,21.88
2023-12-07T11:04:23.365Z,21.86
2023-12-07T11:06:25.174Z,21.89
2023-12-07T11:08:33.267Z,21.83
2023-12-07T11:10:44.212Z,21.90
2023-12-07T11:12:49.462Z,21.93
2023-12-07T11:14:51.091Z,21.92
2023-12-07T11:16:53.529Z,21.91
2023-12-07T11:18:55.241Z,21.91
2023-12-07T11:20:57.624Z,21.89
2023-12-07T11:23:00.297Z,21.87
2023-12-07T11:25:04.392Z,21.85
2023-12-07T11:27:06.864Z,21.85
2023-12-07T11:29:11.278Z,21.87
2023-12-07T11:31:14.756Z,21.86
2023-12-07T11:33:16.766Z,21.85
2023-12-07T11:37:45.050Z,21.83
2023-12-07T11:39:46.857Z,21.82
2023-12-07T11:58:51.893Z,21.81
2023-12-07T12:00:54.840Z,21.80
2023-12-07T12:02:57.272Z,21.77
2023-12-07T12:04:59.450Z,21.77
2023-12-07T12:07:01.070Z,21.79
2023-12-07T12:09:02.617Z,21.80
2023-12-07T12:11:04.345Z,21.82
2023-12-07T12:13:06.038Z,21.81
2023-12-07T12:15:07.760Z,21.81
2023-12-07T12:30:53.622Z,22.09
2023-12-07T12:32:57.127Z,22.04
2023-12-07T12:34:59.655Z,22.00
2023-12-07T12:37:01.755Z,22.05
2023-12-07T12:39:06.308Z,22.06
2023-12-07T12:41:08.373Z,22.04
2023-12-07T12:43:11.838Z,22.06
2023-12-07T12:45:14.894Z,22.05
2023-12-07T12:47:16.505Z,22.09
2023-12-07T12:49:18.391Z,22.12
2023-12-07T12:51:20.303Z,22.09
2023-12-07T12:53:21.826Z,22.08
2023-12-07T12:55:23.401Z,22.06
2023-12-07T12:57:25.932Z,22.06
2023-12-07T12:59:28.058Z,22.01
2023-12-07T13:01:29.742Z,21.97
2023-12-07T13:03:32.790Z,21.90
2023-12-07T13:05:35.629Z,21.90
2023-12-07T13:07:38.167Z,21.93
2023-12-07T13:09:44.674Z,21.95
2023-12-07T13:11:46.205Z,21.97
2023-12-07T13:13:48.831Z,21.97
2023-12-07T13:15:50.598Z,22.02
2023-12-07T13:17:52.423Z,22.05
2023-12-07T13:19:55.519Z,22.05
2023-12-07T13:21:57.461Z,22.00
2023-12-07T13:24:01.640Z,22.01
2023-12-07T13:26:05.543Z,21.93
2023-12-07T13:28:07.530Z,22.01
2023-12-07T13:30:10.309Z,22.10
2023-12-07T13:32:12.935Z,22.17
2023-12-07T13:34:20.961Z,22.13
2023-12-07T13:36:27.588Z,22.05
2023-12-07T13:38:31.157Z,22.08
2023-12-07T13:40:32.919Z,22.00
2023-12-07T13:42:34.496Z,22.01
2023-12-07T13:44:36.680Z,22.01
2023-12-07T13:50:51.560Z,22.14
2023-12-07T13:52:53.341Z,22.18
2023-12-07T13:54:54.806Z,22.20
2023-12-07T13:56:56.422Z,22.17
2023-12-07T13:58:58.025Z,22.18
2023-12-07T14:00:59.667Z,22.22
2023-12-07T14:03:01.301Z,22.23
2023-12-07T14:05:02.982Z,22.29
2023-12-07T14:07:12.357Z,22.31
2023-12-07T14:09:14.001Z,22.26
2023-12-07T14:11:15.639Z,22.29
2023-12-07T14:13:19.194Z,22.29
2023-12-07T14:15:29.008Z,22.28
2023-12-07T14:17:47.350Z,22.23
2023-12-07T14:20:00.097Z,22.21
2023-12-07T14:22:09.471Z,22.24
2023-12-07T14:24:11.260Z,22.26
2023-12-07T14:26:12.981Z,22.29
2023-12-07T14:28:14.437Z,22.28
2023-12-07T14:30:17.968Z,22.22
2023-12-07T14:32:19.968Z,22.23
2023-12-07T14:34:31.054Z,22.23
2023-12-07T14:36:36.306Z,22.20
2023-12-07T14:38:38.398Z,22.24
2023-12-07T14:40:40.004Z,22.21
2023-12-07T14:42:41.709Z,22.23
2023-12-07T14:44:43.241Z,22.25
2023-12-07T14:46:46.003Z,22.26
2023-12-07T14:48:47.692Z,22.20
2023-12-07T14:50:49.409Z,22.22
2023-12-07T14:52:51.109Z,22.24
2023-12-07T14:54:53.895Z,22.32
2023-12-07T14:56:55.684Z,22.36
2023-12-07T14:58:59.225Z,22.34
2023-12-07T15:01:01.042Z,22.27
2023-12-07T15:03:02.587Z,22.25
2023-12-07T15:05:05.677Z,22.20
2023-12-07T15:07:07.716Z,22.21
2023-12-07T15:09:09.463Z,22.17
2023-12-07T15:11:11.871Z,22.20
2023-12-07T15:13:13.439Z,22.25
2023-12-07T15:15:15.122Z,22.29
2023-12-07T15:17:17.074Z,22.20
2023-12-07T15:19:18.971Z,22.19
2023-12-07T15:21:20.952Z,22.30
2023-12-07T15:23:22.558Z,22.31
2023-12-07T15:25:24.183Z,22.28
2023-12-07T15:27:25.932Z,22.24
2023-12-07T15:29:27.587Z,22.28
2023-12-07T15:31:29.311Z,22.29
2023-12-07T15:33:31.679Z,22.33
2023-12-07T15:35:33.807Z,22.36
2023-12-07T15:37:35.502Z,22.36
2023-12-07T15:39:37.099Z,22.30
2023-12-07T15:41:39.106Z,22.36
2023-12-07T15:43:40.732Z,22.29
2023-12-07T15:45:42.332Z,22.29
2023-12-07T15:47:44.346Z,22.37
2023-12-07T15:49:46.136Z,22.31
2023-12-07T15:51:48.922Z,22.29
2023-12-07T15:53:50.562Z,22.29
2023-12-07T15:55:52.117Z,22.30
2023-12-07T15:57:55.622Z,22.18
2023-12-07T15:59:57.923Z,22.30
2023-12-07T16:01:59.744Z,22.37
2023-12-07T16:04:02.000Z,22.34
2023-12-07T16:06:05.178Z,22.28
2023-12-07T16:08:06.936Z,22.26
2023-12-07T16:10:09.732Z,22.26
2023-12-07T16:12:12.401Z,22.31
2023-12-07T16:14:20.964Z,22.28
2023-12-07T16:16:27.980Z,22.23
2023-12-07T16:18:29.754Z,22.22
2023-12-07T16:20:31.449Z,22.18
2023-12-07T16:22:33.140Z,22.13
2023-12-07T16:24:34.872Z,22.13
2023-12-07T16:26:39.401Z,22.08
2023-12-07T16:28:40.991Z,22.04
2023-12-07T16:30:48.535Z,22.00
2023-12-07T16:32:51.038Z,21.97
2023-12-07T16:34:52.768Z,21.99
2023-12-07T16:36:54.467Z,21.96
2023-12-07T16:38:56.060Z,22.00
2023-12-07T16:40:57.676Z,22.02
2023-12-07T16:42:59.433Z,22.05
2023-12-07T16:45:00.987Z,22.04
2023-12-07T16:47:03.009Z,22.04
2023-12-07T16:49:04.708Z,22.03
2023-12-07T16:51:07.089Z,22.03
2023-12-07T16:53:08.757Z,22.02
2023-12-07T16:55:10.488Z,22.02
2023-12-07T16:57:12.241Z,22.05
2023-12-07T16:59:13.892Z,22.08
2023-12-07T17:01:16.018Z,22.08
2023-12-07T17:03:19.965Z,22.14
2023-12-07T17:05:22.346Z,22.14
2023-12-07T17:07:24.343Z,22.13
2023-12-07T17:09:27.272Z,21.99
2023-12-07T17:11:29.061Z,21.97
2023-12-07T17:13:30.647Z,22.01
2023-12-07T17:15:32.332Z,22.02
2023-12-07T17:17:33.989Z,22.06
2023-12-07T17:19:42.128Z,22.07
2023-12-07T17:21:48.734Z,22.08
2023-12-07T17:23:50.471Z,22.09
2023-12-07T17:25:52.255Z,22.01
2023-12-07T17:27:56.701Z,22.13
2023-12-07T17:29:59.665Z,22.07
2023-12-07T17:32:01.487Z,21.99
2023-12-07T17:36:09.821Z,21.99
2023-12-07T17:38:11.285Z,22.01
2023-12-07T17:40:12.902Z,22.03
2023-12-07T17:42:14.575Z,22.11
2023-12-07T17:46:23.068Z,22.18
2023-12-07T17:48:24.856Z,22.23
2023-12-07T17:50:26.576Z,22.11
2023-12-07T17:52:28.213Z,22.14
2023-12-07T18:00:48.949Z,22.10
2023-12-07T18:02:50.777Z,22.15
2023-12-07T18:04:52.706Z,22.13
2023-12-07T18:11:03.201Z,22.21
2023-12-07T18:13:04.850Z,22.33
2023-12-07T18:15:09.001Z,22.32
2023-12-07T18:17:10.722Z,22.40
2023-12-07T18:23:25.849Z,22.30
2023-12-07T18:25:27.482Z,22.30
2023-12-07T18:27:29.259Z,22.27
2023-12-07T18:29:31.135Z,22.20
2023-12-07T18:33:39.553Z,22.14
2023-12-07T18:35:41.231Z,22.14
2023-12-07T18:37:42.795Z,22.02
2023-12-07T18:39:44.413Z,22.03
2023-12-07T18:41:46.013Z,22.06
2023-12-07T18:45:54.826Z,22.06
2023-12-07T18:47:56.473Z,22.10
2023-12-07T18:49:58.370Z,22.10
2023-12-07T18:52:00.831Z,22.07
2023-12-07T18:58:39.872Z,22.00
2023-12-07T19:00:42.686Z,22.16
2023-12-07T19:02:44.872Z,22.18
2023-12-07T19:04:46.620Z,22.16
2023-12-07T19:06:48.188Z,22.09
2023-12-07T19:08:49.791Z,22.05
2023-12-07T19:10:51.598Z,22.02
2023-12-07T19:12:53.148Z,22.06
2023-12-07T19:14:54.730Z,22.02
2023-12-07T19:16:56.378Z,21.99
2023-12-07T19:18:58.030Z,21.99
2023-12-07T19:21:00.169Z,21.94
2023-12-07T19:23:01.814Z,21.91
2023-12-07T19:25:03.550Z,21.97
2023-12-07T19:27:05.166Z,22.06
2023-12-07T19:29:06.792Z,22.07
2023-12-07T19:31:08.739Z,22.08
2023-12-07T19:33:10.477Z,22.08
2023-12-07T19:35:12.095Z,22.07
2023-12-07T19:37:13.783Z,22.05
2023-12-07T19:39:18.530Z,22.03
2023-12-07T19:41:20.091Z,22.04
2023-12-07T19:43:21.658Z,22.03
2023-12-07T19:45:23.162Z,22.01
2023-12-07T19:47:24.947Z,21.98
2023-12-07T19:49:26.838Z,21.96
2023-12-07T19:51:28.504Z,22.02
2023-12-07T19:53:30.088Z,22.00
2023-12-07T19:55:31.887Z,22.01
2023-12-07T19:57:33.988Z,22.00
2023-12-07T19:59:35.661Z,21.97
2023-12-07T20:01:37.280Z,21.97
2023-12-07T20:03:39.104Z,21.98
2023-12-07T20:05:40.623Z,21.98
2023-12-07T20:07:42.295Z,21.96
2023-12-07T20:09:43.909Z,21.95
2023-12-07T20:11:45.770Z,21.98
2023-12-07T20:13:47.833Z,21.97
2023-12-07T20:15:49.325Z,21.94
2023-12-07T20:17:51.103Z,21.90
2023-12-07T20:19:52.837Z,21.85
2023-12-07T20:21:54.514Z,21.80
2023-12-07T20:23:56.130Z,21.77
2023-12-07T20:25:57.822Z,21.77
2023-12-07T20:27:59.384Z,21.78
2023-12-07T20:30:01.241Z,21.83
2023-12-07T20:32:02.973Z,21.86
2023-12-07T20:34:04.867Z,21.88
2023-12-07T20:36:06.676Z,21.85
2023-12-07T20:38:09.142Z,21.82
2023-12-07T20:40:11.100Z,21.82
2023-12-07T20:42:12.849Z,21.83
2023-12-07T20:44:14.444Z,21.81
2023-12-07T20:46:16.113Z,21.83
2023-12-07T20:48:17.751Z,21.84
2023-12-07T20:50:20.543Z,21.88
2023-12-07T20:52:22.162Z,21.91
2023-12-07T20:54:23.826Z,21.92
2023-12-07T20:56:29.640Z,21.92
2023-12-07T20:58:36.541Z,21.88
2023-12-07T21:00:38.246Z,21.89
2023-12-07T21:02:39.830Z,21.85
2023-12-07T21:04:41.486Z,21.84
2023-12-07T21:06:43.183Z,21.85
2023-12-07T21:08:44.828Z,21.86
2023-12-07T21:10:46.426Z,21.88
2023-12-07T21:12:51.139Z,21.89
2023-12-07T21:14:52.870Z,21.89
2023-12-07T21:16:54.547Z,21.90
2023-12-07T21:18:56.266Z,21.89
2023-12-07T21:20:57.963Z,21.88
2023-12-07T21:22:59.685Z,21.84
2023-12-07T21:25:01.318Z,21.82
2023-12-07T21:27:02.963Z,21.81
2023-12-07T21:29:04.657Z,21.80
2023-12-07T21:31:06.462Z,21.84
2023-12-07T21:33:08.405Z,21.84
2023-12-07T21:35:10.718Z,21.87
2023-12-07T21:37:12.311Z,21.88
2023-12-07T21:39:14.054Z,21.88
2023-12-07T21:41:15.522Z,21.86
2023-12-07T21:43:17.104Z,21.83
2023-12-07T21:45:18.813Z,21.84
2023-12-07T21:47:20.484Z,21.81
2023-12-07T21:49:22.223Z,21.80
2023-12-07T21:51:23.949Z,21.81
2023-12-07T21:53:25.629Z,21.83
2023-12-07T21:55:27.268Z,21.86
2023-12-07T21:57:29.188Z,21.87
2023-12-07T21:59:30.991Z,21.88
2023-12-07T22:01:32.715Z,21.87
2023-12-07T22:03:34.248Z,21.83
2023-12-07T22:05:36.086Z,21.86
2023-12-07T22:07:37.595Z,21.83
2023-12-07T22:09:39.523Z,21.78
2023-12-07T22:11:44.527Z,21.81
2023-12-07T22:13:46.146Z,21.82
2023-12-07T22:15:47.731Z,21.83
2023-12-07T22:17:49.400Z,21.85
2023-12-07T22:19:51.500Z,21.80
2023-12-07T22:21:53.111Z,21.87
2023-12-07T22:23:54.755Z,21.84
2023-12-07T22:25:56.713Z,21.83
2023-12-07T22:27:59.685Z,21.83
2023-12-07T22:30:01.695Z,21.82
2023-12-07T22:32:03.480Z,21.80
2023-12-07T22:34:05.244Z,21.83
2023-12-07T22:36:07.294Z,21.82
2023-12-07T22:38:09.110Z,21.82
2023-12-07T22:40:10.969Z,21.84
2023-12-07T22:44:18.890Z,21.82
2023-12-07T22:46:20.399Z,21.82
2023-12-07T22:48:22.108Z,21.83
2023-12-07T22:50:23.819Z,21.83
2023-12-07T22:52:25.369Z,21.82
2023-12-07T22:54:27.662Z,21.80
2023-12-07T22:56:29.731Z,21.85
2023-12-07T22:58:31.289Z,21.89
2023-12-07T23:00:33.016Z,21.88
2023-12-07T23:02:34.727Z,21.89
2023-12-07T23:04:36.424Z,21.89
2023-12-07T23:06:38.228Z,21.88
2023-12-07T23:08:39.770Z,21.84
2023-12-07T23:10:41.351Z,21.82
2023-12-07T23:12:42.992Z,21.83
2023-12-07T23:14:44.620Z,21.81
2023-12-07T23:16:46.168Z,21.81
2023-12-07T23:18:47.871Z,21.84
2023-12-07T23:20:49.576Z,21.86
2023-12-07T23:22:51.736Z,21.86
2023-12-07T23:24:53.336Z,21.89
2023-12-07T23:26:55.693Z,21.88
2023-12-07T23:28:57.402Z,21.89
2023-12-07T23:30:58.959Z,21.88
2023-12-07T23:33:00.661Z,21.86
2023-12-07T23:35:02.334Z,21.85
2023-12-07T23:37:04.139Z,21.86
2023-12-07T23:39:06.016Z,21.89
2023-12-07T23:41:07.673Z,21.82
2023-12-07T23:43:09.332Z,21.93
2023-12-07T23:45:11.337Z,21.92
2023-12-07T23:47:13.000Z,21.92
2023-12-07T23:49:14.611Z,21.89
2023-12-07T23:51:16.538Z,21.89
2023-12-07T23:53:18.161Z,21.89
2023-12-07T23:55:19.728Z,21.87
2023-12-07T23:57:21.374Z,21.88
2023-12-07T23:59:22.914Z,21.88
